METAR Data
IDs: Format: Raw Decoded Include TAF

Data at: 0127 UTC 25 Mar 2019

KCBF 250115Z AUTO 36009KT 5SM BR OVC004 07/07 A3011 RMK AO2
KCBF 250055Z AUTO 01008G15KT 6SM BR OVC005 07/07 A3010 RMK AO2
KCBF 250035Z AUTO 01009G14KT 6SM BR OVC006 07/07 A3009 RMK AO2
KCBF 250015Z AUTO 02010KT 4SM BR OVC005 07/07 A3009 RMK AO2
KCBF 242355Z AUTO 02008KT 1 3/4SM BR OVC005 07/07 A3008 RMK AO2
KCBF 242335Z AUTO 36009G14KT 2SM BR OVC006 07/07 A3007 RMK AO2
KCBF 242315Z AUTO 35007G13KT 4SM BR OVC006 07/07 A3007 RMK AO2
KCBF 242255Z AUTO 01011KT 4SM BR BKN005 BKN009 OVC019 07/07 A3005 RMK AO2
KCBF 242235Z AUTO 02010KT 5SM BR SCT005 BKN019 OVC035 08/08 A3004 RMK AO2
KCBF 242215Z AUTO 03010KT 4SM BR BKN004 07/07 A3004 RMK AO2
KCBF 242155Z AUTO 02010KT 2 1/2SM BR OVC004 07/07 A3004 RMK AO2
KCBF 242135Z AUTO 02014KT 4SM BR OVC006 08/08 A3004 RMK AO2
KCBF 242115Z AUTO 01012KT 5SM BR OVC006 08/08 A3003 RMK AO2
KCBF 242055Z AUTO 01013KT 4SM BR OVC004 08/08 A3003 RMK AO2
KCBF 242035Z AUTO 36008KT 1 1/2SM BR OVC003 07/07 A3002 RMK AO2
KCBF 242015Z AUTO 01009G15KT 1 1/2SM BR OVC003 07/07 A3002 RMK AO2
KCBF 241955Z AUTO 36013G18KT 7SM OVC005 08/08 A3001 RMK AO2
KCBF 241935Z AUTO 34007KT 10SM OVC005 08/08 A3000 RMK AO2
KCBF 241915Z AUTO 34008KT 8SM OVC004 08/08 A3000 RMK AO2
KCBF 241855Z AUTO 36008KT 4SM BR OVC004 08/08 A2999 RMK AO2
KCBF 241835Z AUTO 01008KT 2SM BR OVC003 08/08 A2999 RMK AO2
KCBF 241815Z AUTO 35010KT 1 1/4SM BR OVC003 08/08 A2999 RMK AO2
KCBF 241755Z AUTO 35009G14KT 1/4SM FG OVC003 08/08 A2998 RMK AO2
KCBF 241735Z AUTO 36008KT 1/2SM FG OVC003 08/08 A2998 RMK AO2
KCBF 241715Z AUTO 02007KT 1/4SM FG OVC003 08/08 A2998 RMK AO2
KCBF 241655Z AUTO 03010KT 1/4SM FG OVC003 08/08 A2997 RMK AO2
KCBF 241635Z AUTO 05008KT 1/4SM FG OVC003 08/08 A2997 RMK AO2
KCBF 241615Z AUTO 03008KT 1/4SM FG OVC003 09/09 A2997 RMK AO2
KCBF 241555Z AUTO 01009KT 3/4SM BR OVC003 08/08 A2997 RMK AO2
KCBF 241535Z AUTO 02007KT 2SM BR OVC003 08/08 A2996 RMK AO2
KCBF 241515Z AUTO 02006KT 1 3/4SM BR OVC003 08/08 A2996 RMK AO2
KCBF 241455Z AUTO 04004KT 2SM BR OVC003 08/08 A2996 RMK AO2
KCBF 241435Z AUTO 08005KT 3SM BR OVC004 08/08 A2995 RMK AO2
KCBF 241415Z AUTO 11007KT 7SM OVC005 08/08 A2995 RMK AO2
KCBF 241355Z AUTO 10006KT 7SM OVC007 08/08 A2994 RMK AO2
KCBF 241335Z AUTO 10005KT 7SM OVC008 08/08 A2994 RMK AO2
KCBF 241315Z AUTO 08007KT 7SM OVC008 08/08 A2993 RMK AO2
KCBF 241255Z AUTO 09005KT 7SM OVC008 08/08 A2993 RMK AO2
KCBF 241235Z AUTO 09006KT 8SM OVC008 08/08 A2992 RMK AO2
KCBF 241215Z AUTO 11008KT 7SM OVC008 08/08 A2992 RMK AO2
KCBF 241155Z AUTO 10007KT 6SM BR OVC009 08/08 A2992 RMK AO2
KCBF 241135Z AUTO 10007KT 6SM BR OVC008 08/08 A2992 RMK AO2
KCBF 241115Z AUTO 10006KT 6SM BR OVC006 08/08 A2992 RMK AO2
KCBF 241055Z AUTO 10006KT 5SM BR OVC006 08/08 A2992 RMK AO2 P0002
KCBF 241035Z AUTO 10007KT 5SM BR OVC009 08/08 A2991 RMK AO2
KCBF 241015Z AUTO 11007KT 3SM -RA BKN007 OVC011 08/08 A2991 RMK AO2
KCBF 240955Z AUTO 11008KT 3SM -RA OVC007 08/08 A2991 RMK AO2 P0005
KCBF 240935Z AUTO 12008KT 3SM BR OVC007 09/09 A2991 RMK AO2
KCBF 240915Z AUTO 12007KT 3SM -RA BKN007 OVC012 09/09 A2991 RMK AO2
KCBF 240855Z AUTO 12006KT 3SM -RA OVC012 08/08 A2992 RMK AO2
KCBF 240835Z AUTO 12005KT 5SM BR OVC012 08/08 A2993 RMK AO2
KCBF 240815Z AUTO 13006KT 4SM BR BKN004 OVC011 08/08 A2993 RMK AO2
KCBF 240755Z AUTO 14007KT 2SM BR BKN003 OVC007 08/08 A2994 RMK AO2
KCBF 240735Z AUTO 13007KT 3SM BR OVC008 09/09 A2994 RMK AO2
KCBF 240715Z AUTO 13007KT 7SM OVC011 09/09 A2995 RMK AO2
KCBF 240655Z AUTO 13006KT 9SM OVC011 09/09 A2995 RMK AO2
KCBF 240635Z AUTO 13007KT 10SM OVC012 09/09 A2996 RMK AO2
KCBF 240615Z AUTO 14007KT 10SM OVC014 09/09 A2996 RMK AO2
KCBF 240555Z AUTO 14008KT 10SM BKN015 OVC025 08/08 A2996 RMK AO2
KCBF 240535Z AUTO 15008KT 10SM SCT019 BKN026 OVC032 08/08 A2996 RMK AO2
KCBF 240515Z AUTO 13008KT 10SM OVC019 08/08 A2997 RMK AO2
KCBF 240455Z AUTO 12008KT 10SM OVC020 08/08 A2997 RMK AO2
KCBF 240435Z AUTO 12009G14KT 10SM OVC021 08/08 A2997 RMK AO2
KCBF 240415Z AUTO 12009KT 10SM OVC022 08/08 A2998 RMK AO2
KCBF 240355Z AUTO 12008KT 10SM OVC022 08/08 A2999 RMK AO2
KCBF 240335Z AUTO 13007KT 10SM SCT024 OVC034 08/08 A2999 RMK AO2
KCBF 240315Z AUTO 12008KT 10SM OVC034 08/08 A3000 RMK AO2
KCBF 240255Z AUTO 12013KT 10SM OVC033 08/08 A2999 RMK AO2
KCBF 240235Z AUTO 12011KT 10SM OVC033 08/08 A3000 RMK AO2
KCBF 240215Z AUTO 11011KT 10SM OVC031 08/08 A3000 RMK AO2
KCBF 240155Z AUTO 10012KT 10SM OVC031 08/08 A2999 RMK AO2
KCBF 240135Z AUTO 10011KT 10SM BKN034 BKN080 OVC110 08/08 A2999 RMK AO2
KCBF 240115Z AUTO 09013G19KT 10SM BKN035 OVC110 08/08 A2998 RMK AO2
KCBF 240055Z AUTO 10014G19KT 10SM OVC033 08/08 A2999 RMK AO2
KCBF 240035Z AUTO 10013G18KT 10SM OVC032 08/08 A2999 RMK AO2
KCBF 240015Z AUTO 11012G19KT 10SM OVC032 09/09 A3000 RMK AO2
KCBF 232355Z AUTO 12013G20KT 10SM OVC032 09/09 A3001 RMK AO2
KCBF 232335Z AUTO 11016KT 10SM OVC033 09/09 A3000 RMK AO2
KCBF 232315Z AUTO 12012G19KT 10SM BKN032 OVC038 09/09 A3001 RMK AO2
KCBF 232255Z AUTO 12011KT 10SM OVC038 09/08 A3002 RMK AO2
KCBF 232235Z AUTO 13012KT 10SM OVC040 10/06 A3003 RMK AO2
KCBF 232215Z AUTO 12009G17KT 10SM OVC045 10/05 A3003 RMK AO2
KCBF 232155Z AUTO 10008KT 9SM BKN046 OVC050 10/04 A3002 RMK AO2
KCBF 232135Z AUTO 12006KT 10SM BKN050 OVC055 10/03 A3002 RMK AO2
KCBF 232115Z AUTO 11008KT 10SM BKN055 OVC060 11/02 A3002 RMK AO2
KCBF 232055Z AUTO 11009KT 10SM OVC060 11/02 A3002 RMK AO2
KCBF 232035Z AUTO 12006G12KT 10SM OVC070 11/02 A3003 RMK AO2
KCBF 232015Z AUTO 12009G14KT 10SM OVC070 11/02 A3004 RMK AO2
KCBF 231955Z AUTO 13014KT 10SM OVC070 11/02 A3005 RMK AO2
KCBF 231935Z AUTO 13011G16KT 10SM OVC075 12/02 A3005 RMK AO2
KCBF 231915Z AUTO 12012G18KT 10SM OVC080 12/02 A3006 RMK AO2
KCBF 231855Z AUTO 11013G18KT 10SM BKN085 12/01 A3006 RMK AO2
KCBF 231835Z AUTO 12013G19KT 10SM OVC085 12/01 A3006 RMK AO2
KCBF 231815Z AUTO 11013KT 10SM OVC085 13/01 A3007 RMK AO2
KCBF 231755Z AUTO 09014KT 10SM OVC080 12/01 A3007 RMK AO2
KCBF 231735Z AUTO 10014KT 10SM SCT070 BKN085 BKN110 11/01 A3008 RMK AO2
KCBF 231715Z AUTO 09012KT 10SM SCT050 BKN065 OVC080 09/02 A3009 RMK AO2
KCBF 231655Z AUTO 11010KT 10SM BKN050 BKN070 09/02 A3011 RMK AO2
KCBF 231635Z AUTO 13008KT 10SM FEW055 SCT070 08/03 A3012 RMK AO2
KCBF 231615Z AUTO 12007KT 9SM FEW050 FEW055 07/02 A3012 RMK AO2
KCBF 231555Z AUTO 14010KT 10SM FEW049 FEW060 07/01 A3014 RMK AO2
KCBF 231535Z AUTO 11007KT 10SM FEW060 FEW075 07/00 A3012 RMK AO2
KCBF 231515Z AUTO 12008KT 10SM FEW070 07/00 A3013 RMK AO2
KCBF 231455Z AUTO 11009KT 10SM CLR 07/00 A3012 RMK AO2
KCBF 231435Z AUTO 11008KT 10SM CLR 06/00 A3012 RMK AO2
KCBF 231415Z AUTO 11009KT 10SM CLR 05/00 A3012 RMK AO2
KCBF 231355Z AUTO 11009KT 10SM CLR 05/00 A3012 RMK AO2
KCBF 231335Z AUTO 11009KT 10SM CLR 04/00 A3012 RMK AO2